sensor_id;sensor_type;location;lat;lon;timestamp;pressure;altitude;pressure_sealevel;temperature;humidity
46534;BME280;32260;52.008;4.752;2023-07-02T00:01:43;100797.34;;;19.47;62.25
46534;BME280;32260;52.008;4.752;2023-07-02T00:04:09;100795.19;;;19.37;61.59
46534;BME280;32260;52.008;4.752;2023-07-02T00:06:36;100797.13;;;19.35;61.58
46534;BME280;32260;52.008;4.752;2023-07-02T00:09:07;100795.63;;;19.30;61.02
46534;BME280;32260;52.008;4.752;2023-07-02T00:11:34;100800.31;;;19.26;61.00
46534;BME280;32260;52.008;4.752;2023-07-02T00:14:01;100798.84;;;19.20;60.38
46534;BME280;32260;52.008;4.752;2023-07-02T00:16:27;100796.59;;;19.13;60.26
46534;BME280;32260;52.008;4.752;2023-07-02T00:18:53;100788.13;;;19.04;59.35
46534;BME280;32260;52.008;4.752;2023-07-02T00:21:19;100793.13;;;18.95;58.57
46534;BME280;32260;52.008;4.752;2023-07-02T00:23:46;100791.72;;;18.87;57.89
46534;BME280;32260;52.008;4.752;2023-07-02T00:26:13;100797.06;;;18.87;57.98
46534;BME280;32260;52.008;4.752;2023-07-02T00:28:39;100796.22;;;18.87;59.12
46534;BME280;32260;52.008;4.752;2023-07-02T00:31:05;100795.69;;;18.80;58.26
46534;BME280;32260;52.008;4.752;2023-07-02T00:33:32;100804.06;;;18.74;57.64
46534;BME280;32260;52.008;4.752;2023-07-02T00:35:58;100798.78;;;18.72;58.18
46534;BME280;32260;52.008;4.752;2023-07-02T00:38:26;100793.41;;;18.72;58.61
46534;BME280;32260;52.008;4.752;2023-07-02T00:40:52;100806.22;;;18.67;58.16
46534;BME280;32260;52.008;4.752;2023-07-02T00:43:18;100800.06;;;18.65;58.84
46534;BME280;32260;52.008;4.752;2023-07-02T00:45:45;100796.69;;;18.62;58.56
46534;BME280;32260;52.008;4.752;2023-07-02T00:48:11;100804.81;;;18.60;58.91
46534;BME280;32260;52.008;4.752;2023-07-02T00:50:39;100804.22;;;18.55;58.14
46534;BME280;32260;52.008;4.752;2023-07-02T00:53:06;100804.31;;;18.53;58.78
46534;BME280;32260;52.008;4.752;2023-07-02T00:55:32;100810.72;;;18.51;58.27
46534;BME280;32260;52.008;4.752;2023-07-02T00:57:58;100806.09;;;18.53;58.66
46534;BME280;32260;52.008;4.752;2023-07-02T01:00:24;100814.47;;;18.47;57.93
46534;BME280;32260;52.008;4.752;2023-07-02T01:02:55;100817.81;;;18.52;57.88
46534;BME280;32260;52.008;4.752;2023-07-02T01:05:26;100826.19;;;18.46;57.79
46534;BME280;32260;52.008;4.752;2023-07-02T01:07:58;100816.50;;;18.43;57.74
46534;BME280;32260;52.008;4.752;2023-07-02T01:10:24;100812.31;;;18.37;57.02
46534;BME280;32260;52.008;4.752;2023-07-02T01:12:50;100815.69;;;18.41;57.22
46534;BME280;32260;52.008;4.752;2023-07-02T01:15:17;100821.91;;;18.41;56.60
46534;BME280;32260;52.008;4.752;2023-07-02T01:17:43;100826.09;;;18.47;57.30
46534;BME280;32260;52.008;4.752;2023-07-02T01:20:11;100820.88;;;18.44;56.10
46534;BME280;32260;52.008;4.752;2023-07-02T01:22:38;100834.09;;;18.31;55.67
46534;BME280;32260;52.008;4.752;2023-07-02T01:25:06;100827.13;;;18.45;56.69
46534;BME280;32260;52.008;4.752;2023-07-02T01:27:35;100816.25;;;18.30;55.09
46534;BME280;32260;52.008;4.752;2023-07-02T01:30:01;100823.97;;;18.36;55.43
46534;BME280;32260;52.008;4.752;2023-07-02T01:32:28;100820.69;;;18.31;54.71
46534;BME280;32260;52.008;4.752;2023-07-02T01:34:55;100819.66;;;18.34;54.50
46534;BME280;32260;52.008;4.752;2023-07-02T01:37:21;100827.94;;;18.29;53.68
46534;BME280;32260;52.008;4.752;2023-07-02T01:39:47;100818.69;;;18.35;53.90
46534;BME280;32260;52.008;4.752;2023-07-02T01:42:15;100825.84;;;18.34;54.31
46534;BME280;32260;52.008;4.752;2023-07-02T01:44:43;100822.31;;;18.34;54.20
46534;BME280;32260;52.008;4.752;2023-07-02T01:47:09;100821.00;;;18.25;53.06
46534;BME280;32260;52.008;4.752;2023-07-02T01:49:36;100831.72;;;18.25;53.91
46534;BME280;32260;52.008;4.752;2023-07-02T01:52:03;100822.13;;;18.21;52.40
46534;BME280;32260;52.008;4.752;2023-07-02T01:54:30;100821.50;;;18.16;52.72
46534;BME280;32260;52.008;4.752;2023-07-02T01:56:58;100821.63;;;18.13;51.91
46534;BME280;32260;52.008;4.752;2023-07-02T01:59:24;100821.63;;;18.13;52.33
46534;BME280;32260;52.008;4.752;2023-07-02T02:01:51;100822.03;;;18.05;51.33
46534;BME280;32260;52.008;4.752;2023-07-02T02:04:18;100822.13;;;18.03;50.96
46534;BME280;32260;52.008;4.752;2023-07-02T02:06:44;100821.41;;;18.00;50.93
46534;BME280;32260;52.008;4.752;2023-07-02T02:09:10;100817.63;;;18.04;51.73
46534;BME280;32260;52.008;4.752;2023-07-02T02:11:41;100818.47;;;18.04;51.70
46534;BME280;32260;52.008;4.752;2023-07-02T02:14:07;100829.53;;;17.98;51.43
46534;BME280;32260;52.008;4.752;2023-07-02T02:16:34;100833.22;;;17.95;51.90
46534;BME280;32260;52.008;4.752;2023-07-02T02:19:00;100838.88;;;17.89;51.64
46534;BME280;32260;52.008;4.752;2023-07-02T02:21:27;100847.78;;;17.90;52.49
46534;BME280;32260;52.008;4.752;2023-07-02T02:23:53;100839.19;;;17.83;52.65
46534;BME280;32260;52.008;4.752;2023-07-02T02:26:20;100839.44;;;17.78;52.49
46534;BME280;32260;52.008;4.752;2023-07-02T02:28:48;100846.66;;;17.76;53.06
46534;BME280;32260;52.008;4.752;2023-07-02T02:31:15;100856.88;;;17.68;52.43
46534;BME280;32260;52.008;4.752;2023-07-02T02:33:41;100855.09;;;17.69;52.67
46534;BME280;32260;52.008;4.752;2023-07-02T02:36:07;100855.94;;;17.69;52.69
46534;BME280;32260;52.008;4.752;2023-07-02T02:38:33;100856.19;;;17.65;52.63
46534;BME280;32260;52.008;4.752;2023-07-02T02:41:00;100858.88;;;17.65;52.81
46534;BME280;32260;52.008;4.752;2023-07-02T02:43:28;100860.38;;;17.70;53.30
46534;BME280;32260;52.008;4.752;2023-07-02T02:45:55;100859.56;;;17.68;53.39
46534;BME280;32260;52.008;4.752;2023-07-02T02:48:21;100866.97;;;17.63;53.06
46534;BME280;32260;52.008;4.752;2023-07-02T02:50:49;100861.47;;;17.66;53.52
46534;BME280;32260;52.008;4.752;2023-07-02T02:53:15;100870.53;;;17.63;53.47
46534;BME280;32260;52.008;4.752;2023-07-02T02:55:41;100869.91;;;17.58;53.55
46534;BME280;32260;52.008;4.752;2023-07-02T02:58:07;100867.28;;;17.57;53.68
46534;BME280;32260;52.008;4.752;2023-07-02T03:00:33;100876.41;;;17.53;53.58
46534;BME280;32260;52.008;4.752;2023-07-02T03:03:00;100863.19;;;17.50;53.25
46534;BME280;32260;52.008;4.752;2023-07-02T03:05:26;100871.06;;;17.53;53.65
46534;BME280;32260;52.008;4.752;2023-07-02T03:07:52;100870.91;;;17.56;53.85
46534;BME280;32260;52.008;4.752;2023-07-02T03:10:18;100873.22;;;17.44;52.99
46534;BME280;32260;52.008;4.752;2023-07-02T03:12:45;100869.19;;;17.55;53.27
46534;BME280;32260;52.008;4.752;2023-07-02T03:15:11;100878.16;;;17.54;53.55
46534;BME280;32260;52.008;4.752;2023-07-02T03:17:37;100871.06;;;17.53;53.28
46534;BME280;32260;52.008;4.752;2023-07-02T03:20:04;100880.03;;;17.52;53.34
46534;BME280;32260;52.008;4.752;2023-07-02T03:22:30;100872.78;;;17.54;53.40
46534;BME280;32260;52.008;4.752;2023-07-02T03:24:56;100875.56;;;17.52;53.62
46534;BME280;32260;52.008;4.752;2023-07-02T03:27:22;100872.94;;;17.51;53.60
46534;BME280;32260;52.008;4.752;2023-07-02T03:29:49;100867.56;;;17.51;53.87
46534;BME280;32260;52.008;4.752;2023-07-02T03:32:15;100867.72;;;17.48;54.04
46534;BME280;32260;52.008;4.752;2023-07-02T03:34:41;100874.03;;;17.46;53.74
46534;BME280;32260;52.008;4.752;2023-07-02T03:37:08;100873.22;;;17.44;54.00
46534;BME280;32260;52.008;4.752;2023-07-02T03:39:34;100880.47;;;17.42;54.05
46534;BME280;32260;52.008;4.752;2023-07-02T03:42:00;100875.25;;;17.39;54.38
46534;BME280;32260;52.008;4.752;2023-07-02T03:44:26;100875.72;;;17.30;54.62
46534;BME280;32260;52.008;4.752;2023-07-02T03:46:54;100879.31;;;17.29;54.36
46534;BME280;32260;52.008;4.752;2023-07-02T03:49:20;100884.56;;;17.32;54.50
46534;BME280;32260;52.008;4.752;2023-07-02T03:51:46;100896.25;;;17.29;54.42
46534;BME280;32260;52.008;4.752;2023-07-02T03:54:12;100890.03;;;17.29;54.72
46534;BME280;32260;52.008;4.752;2023-07-02T03:56:38;100892.78;;;17.27;54.84
46534;BME280;32260;52.008;4.752;2023-07-02T03:59:04;100891.78;;;17.30;54.58
46534;BME280;32260;52.008;4.752;2023-07-02T04:01:30;100892.06;;;17.24;54.65
46534;BME280;32260;52.008;4.752;2023-07-02T04:03:56;100900.81;;;17.27;54.81
46534;BME280;32260;52.008;4.752;2023-07-02T04:06:22;100898.28;;;17.24;54.66
46534;BME280;32260;52.008;4.752;2023-07-02T04:08:49;100904.56;;;17.23;54.66
46534;BME280;32260;52.008;4.752;2023-07-02T04:11:15;100905.53;;;17.22;54.99
46534;BME280;32260;52.008;4.752;2023-07-02T04:13:41;100901.03;;;17.23;54.92
46534;BME280;32260;52.008;4.752;2023-07-02T04:16:07;100904.94;;;17.16;54.94
46534;BME280;32260;52.008;4.752;2023-07-02T04:18:34;100913.03;;;17.14;54.93
46534;BME280;32260;52.008;4.752;2023-07-02T04:21:01;100912.75;;;17.20;55.20
46534;BME280;32260;52.008;4.752;2023-07-02T04:23:27;100921.00;;;17.16;55.51
46534;BME280;32260;52.008;4.752;2023-07-02T04:25:53;100920.78;;;17.20;55.44
46534;BME280;32260;52.008;4.752;2023-07-02T04:28:19;100925.06;;;17.24;55.40
46534;BME280;32260;52.008;4.752;2023-07-02T04:30:45;100917.66;;;17.29;55.00
46534;BME280;32260;52.008;4.752;2023-07-02T04:33:15;100920.00;;;17.37;55.26
46534;BME280;32260;52.008;4.752;2023-07-02T04:35:42;100917.34;;;17.37;54.89
46534;BME280;32260;52.008;4.752;2023-07-02T04:38:08;100926.88;;;17.43;54.88
46534;BME280;32260;52.008;4.752;2023-07-02T04:40:35;100928.69;;;17.42;54.48
46534;BME280;32260;52.008;4.752;2023-07-02T04:43:01;100923.16;;;17.45;54.18
46534;BME280;32260;52.008;4.752;2023-07-02T04:45:28;100924.06;;;17.46;54.28
46534;BME280;32260;52.008;4.752;2023-07-02T04:47:58;100924.06;;;17.46;54.28
46534;BME280;32260;52.008;4.752;2023-07-02T04:50:26;100936.34;;;17.50;54.12
46534;BME280;32260;52.008;4.752;2023-07-02T04:52:53;100940.56;;;17.56;54.47
46534;BME280;32260;52.008;4.752;2023-07-02T04:55:19;100936.16;;;17.55;54.22
46534;BME280;32260;52.008;4.752;2023-07-02T04:57:45;100943.38;;;17.53;53.67
46534;BME280;32260;52.008;4.752;2023-07-02T05:00:11;100945.75;;;17.59;54.02
46534;BME280;32260;52.008;4.752;2023-07-02T05:02:38;100937.44;;;17.65;53.89
46534;BME280;32260;52.008;4.752;2023-07-02T05:05:05;100941.97;;;17.63;53.56
46534;BME280;32260;52.008;4.752;2023-07-02T05:07:31;100945.00;;;17.74;54.30
46534;BME280;32260;52.008;4.752;2023-07-02T05:09:57;100943.44;;;17.70;53.62
46534;BME280;32260;52.008;4.752;2023-07-02T05:12:24;100943.50;;;17.69;53.60
46534;BME280;32260;52.008;4.752;2023-07-02T05:14:50;100942.50;;;17.71;53.65
46534;BME280;32260;52.008;4.752;2023-07-02T05:17:16;100941.41;;;17.75;53.31
46534;BME280;32260;52.008;4.752;2023-07-02T05:19:43;100949.94;;;17.84;53.77
46534;BME280;32260;52.008;4.752;2023-07-02T05:22:09;100952.75;;;17.81;53.62
46534;BME280;32260;52.008;4.752;2023-07-02T05:24:36;100954.19;;;17.88;53.65
46534;BME280;32260;52.008;4.752;2023-07-02T05:27:02;100955.13;;;17.87;53.78
46534;BME280;32260;52.008;4.752;2023-07-02T05:29:28;100958.84;;;17.84;53.32
46534;BME280;32260;52.008;4.752;2023-07-02T05:31:54;100959.63;;;17.86;52.96
46534;BME280;32260;52.008;4.752;2023-07-02T05:34:20;100963.19;;;17.87;53.03
46534;BME280;32260;52.008;4.752;2023-07-02T05:36:46;100967.47;;;17.91;52.94
46534;BME280;32260;52.008;4.752;2023-07-02T05:39:13;100972.56;;;17.97;53.32
46534;BME280;32260;52.008;4.752;2023-07-02T05:41:39;100966.72;;;18.06;53.48
46534;BME280;32260;52.008;4.752;2023-07-02T05:44:05;100979.28;;;18.06;53.45
46534;BME280;32260;52.008;4.752;2023-07-02T05:46:31;100985.69;;;18.21;53.47
46534;BME280;32260;52.008;4.752;2023-07-02T05:48:57;100973.53;;;18.14;53.00
46534;BME280;32260;52.008;4.752;2023-07-02T05:51:24;100976.25;;;18.31;53.00
46534;BME280;32260;52.008;4.752;2023-07-02T05:53:51;100986.97;;;18.31;52.86
46534;BME280;32260;52.008;4.752;2023-07-02T05:56:18;100985.25;;;18.48;52.93
46534;BME280;32260;52.008;4.752;2023-07-02T05:58:45;100990.91;;;18.41;52.27
46534;BME280;32260;52.008;4.752;2023-07-02T06:01:11;100982.81;;;18.43;51.88
46534;BME280;32260;52.008;4.752;2023-07-02T06:03:37;100999.94;;;18.58;52.02
46534;BME280;32260;52.008;4.752;2023-07-02T06:06:03;100991.41;;;18.50;51.17
46534;BME280;32260;52.008;4.752;2023-07-02T06:08:29;101004.41;;;18.57;51.03
46534;BME280;32260;52.008;4.752;2023-07-02T06:10:56;101008.69;;;18.62;50.95
46534;BME280;32260;52.008;4.752;2023-07-02T06:13:22;101005.75;;;18.49;50.88
46534;BME280;32260;52.008;4.752;2023-07-02T06:15:48;101015.00;;;18.61;51.06
46534;BME280;32260;52.008;4.752;2023-07-02T06:18:14;101017.94;;;18.56;50.92
46534;BME280;32260;52.008;4.752;2023-07-02T06:20:40;101005.13;;;18.61;50.72
46534;BME280;32260;52.008;4.752;2023-07-02T06:23:06;100994.88;;;18.69;51.34
46534;BME280;32260;52.008;4.752;2023-07-02T06:25:32;101003.72;;;18.54;51.15
46534;BME280;32260;52.008;4.752;2023-07-02T06:27:59;101011.75;;;18.54;51.37
46534;BME280;32260;52.008;4.752;2023-07-02T06:30:25;101014.63;;;18.51;51.25
46534;BME280;32260;52.008;4.752;2023-07-02T06:32:53;101012.56;;;18.56;51.04
46534;BME280;32260;52.008;4.752;2023-07-02T06:35:19;101007.03;;;18.59;51.17
46534;BME280;32260;52.008;4.752;2023-07-02T06:37:45;101014.00;;;18.63;51.38
46534;BME280;32260;52.008;4.752;2023-07-02T06:40:11;101012.78;;;18.69;51.08
46534;BME280;32260;52.008;4.752;2023-07-02T06:42:37;101022.34;;;18.74;51.06
46534;BME280;32260;52.008;4.752;2023-07-02T06:45:04;101021.16;;;18.80;50.26
46534;BME280;32260;52.008;4.752;2023-07-02T06:47:31;101021.09;;;18.82;49.71
46534;BME280;32260;52.008;4.752;2023-07-02T06:49:57;101026.84;;;18.74;49.47
46534;BME280;32260;52.008;4.752;2023-07-02T06:52:23;101031.34;;;18.73;48.36
46534;BME280;32260;52.008;4.752;2023-07-02T06:54:50;101028.03;;;18.86;49.09
46534;BME280;32260;52.008;4.752;2023-07-02T06:57:17;101035.47;;;18.81;48.45
46534;BME280;32260;52.008;4.752;2023-07-02T06:59:43;101031.56;;;18.86;47.68
46534;BME280;32260;52.008;4.752;2023-07-02T07:02:09;101044.13;;;18.86;47.63
46534;BME280;32260;52.008;4.752;2023-07-02T07:04:35;101034.91;;;18.91;47.85
46534;BME280;32260;52.008;4.752;2023-07-02T07:07:01;101038.56;;;18.90;47.14
46534;BME280;32260;52.008;4.752;2023-07-02T07:09:29;101037.59;;;18.91;46.62
46534;BME280;32260;52.008;4.752;2023-07-02T07:11:56;101043.84;;;18.92;44.94
46534;BME280;32260;52.008;4.752;2023-07-02T07:14:22;101048.41;;;19.07;45.94
46534;BME280;32260;52.008;4.752;2023-07-02T07:16:48;101053.41;;;19.15;46.34
46534;BME280;32260;52.008;4.752;2023-07-02T07:19:14;101059.78;;;19.13;45.66
46534;BME280;32260;52.008;4.752;2023-07-02T07:21:41;101065.16;;;19.13;45.47
46534;BME280;32260;52.008;4.752;2023-07-02T07:24:08;101061.19;;;19.20;45.92
46534;BME280;32260;52.008;4.752;2023-07-02T07:26:35;101066.13;;;19.12;45.35
46534;BME280;32260;52.008;4.752;2023-07-02T07:29:03;101066.66;;;19.18;46.12
46534;BME280;32260;52.008;4.752;2023-07-02T07:31:29;101071.38;;;19.31;46.49
46534;BME280;32260;52.008;4.752;2023-07-02T07:33:55;101078.09;;;19.39;45.90
46534;BME280;32260;52.008;4.752;2023-07-02T07:36:21;101067.00;;;19.46;46.27
46534;BME280;32260;52.008;4.752;2023-07-02T07:38:47;101079.91;;;19.39;45.89
46534;BME280;32260;52.008;4.752;2023-07-02T07:41:13;101076.00;;;19.45;45.62
46534;BME280;32260;52.008;4.752;2023-07-02T07:43:39;101064.13;;;19.49;45.54
46534;BME280;32260;52.008;4.752;2023-07-02T07:46:05;101073.38;;;19.61;46.14
46534;BME280;32260;52.008;4.752;2023-07-02T07:48:31;101074.56;;;19.55;45.27
46534;BME280;32260;52.008;4.752;2023-07-02T07:50:58;101090.78;;;19.53;44.50
46534;BME280;32260;52.008;4.752;2023-07-02T07:53:25;101089.41;;;19.62;43.77
46534;BME280;32260;52.008;4.752;2023-07-02T07:55:51;101109.44;;;19.56;43.61
46534;BME280;32260;52.008;4.752;2023-07-02T07:58:17;101100.56;;;19.54;43.37
46534;BME280;32260;52.008;4.752;2023-07-02T08:00:43;101094.00;;;19.60;42.53
46534;BME280;32260;52.008;4.752;2023-07-02T08:03:10;101088.31;;;19.49;42.73
46534;BME280;32260;52.008;4.752;2023-07-02T08:05:36;101097.88;;;19.54;43.18
46534;BME280;32260;52.008;4.752;2023-07-02T08:08:02;101090.97;;;19.66;43.67
46534;BME280;32260;52.008;4.752;2023-07-02T08:10:28;101097.31;;;19.65;42.09
46534;BME280;32260;52.008;4.752;2023-07-02T08:12:54;101088.19;;;19.85;42.25
46534;BME280;32260;52.008;4.752;2023-07-02T08:15:21;101102.38;;;19.71;42.22
46534;BME280;32260;52.008;4.752;2023-07-02T08:17:47;101091.91;;;19.83;43.20
46534;BME280;32260;52.008;4.752;2023-07-02T08:20:13;101095.00;;;19.75;43.06
46534;BME280;32260;52.008;4.752;2023-07-02T08:22:40;101095.38;;;19.85;41.70
46534;BME280;32260;52.008;4.752;2023-07-02T08:25:07;101091.41;;;19.92;41.82
46534;BME280;32260;52.008;4.752;2023-07-02T08:27:33;101096.88;;;20.07;42.22
46534;BME280;32260;52.008;4.752;2023-07-02T08:29:59;101109.44;;;20.06;42.06
46534;BME280;32260;52.008;4.752;2023-07-02T08:32:25;101093.31;;;20.22;41.85
46534;BME280;32260;52.008;4.752;2023-07-02T08:34:52;101094.91;;;20.26;41.13
46534;BME280;32260;52.008;4.752;2023-07-02T08:37:20;101105.47;;;20.29;40.50
46534;BME280;32260;52.008;4.752;2023-07-02T08:39:48;101102.94;;;20.42;40.26
46534;BME280;32260;52.008;4.752;2023-07-02T08:42:15;101103.72;;;20.28;39.18
46534;BME280;32260;52.008;4.752;2023-07-02T08:44:42;101124.06;;;20.50;38.91
46534;BME280;32260;52.008;4.752;2023-07-02T08:47:11;101114.28;;;20.63;39.67
46534;BME280;32260;52.008;4.752;2023-07-02T08:49:37;101107.00;;;20.65;40.05
46534;BME280;32260;52.008;4.752;2023-07-02T08:52:03;101115.94;;;20.66;39.23
46534;BME280;32260;52.008;4.752;2023-07-02T08:54:29;101109.94;;;20.93;40.43
46534;BME280;32260;52.008;4.752;2023-07-02T08:56:55;101108.50;;;21.01;40.14
46534;BME280;32260;52.008;4.752;2023-07-02T08:59:22;101124.91;;;21.13;38.94
46534;BME280;32260;52.008;4.752;2023-07-02T09:01:49;101123.16;;;21.12;39.47
46534;BME280;32260;52.008;4.752;2023-07-02T09:04:18;101109.53;;;21.15;38.70
46534;BME280;32260;52.008;4.752;2023-07-02T09:06:45;101110.19;;;21.19;38.90
46534;BME280;32260;52.008;4.752;2023-07-02T09:09:12;101114.16;;;21.27;38.83
46534;BME280;32260;52.008;4.752;2023-07-02T09:11:47;101114.69;;;21.18;38.29
46534;BME280;32260;52.008;4.752;2023-07-02T09:17:05;101128.19;;;21.18;38.43
46534;BME280;32260;52.008;4.752;2023-07-02T09:19:32;101122.03;;;21.16;38.14
46534;BME280;32260;52.008;4.752;2023-07-02T09:21:59;101121.84;;;21.19;38.46
46534;BME280;32260;52.008;4.752;2023-07-02T09:24:29;101122.03;;;21.16;38.01
46534;BME280;32260;52.008;4.752;2023-07-02T09:26:59;101128.28;;;21.16;38.22
46534;BME280;32260;52.008;4.752;2023-07-02T09:29:30;101116.38;;;21.35;37.63
46534;BME280;32260;52.008;4.752;2023-07-02T09:31:59;101118.66;;;21.57;37.85
46534;BME280;32260;52.008;4.752;2023-07-02T09:37:06;101119.63;;;21.56;35.81
46534;BME280;32260;52.008;4.752;2023-07-02T09:39:34;101105.28;;;21.85;35.25
46534;BME280;32260;52.008;4.752;2023-07-02T09:42:05;101125.69;;;21.74;35.10
46534;BME280;32260;52.008;4.752;2023-07-02T09:44:33;101115.19;;;21.98;35.68
46534;BME280;32260;52.008;4.752;2023-07-02T09:47:04;101108.25;;;21.94;35.43
46534;BME280;32260;52.008;4.752;2023-07-02T09:49:34;101120.19;;;22.05;35.89
46534;BME280;32260;52.008;4.752;2023-07-02T09:52:04;101121.63;;;21.96;33.59
46534;BME280;32260;52.008;4.752;2023-07-02T09:54:31;101106.88;;;22.16;35.45
46534;BME280;32260;52.008;4.752;2023-07-02T09:56:58;101108.38;;;22.20;34.15
46534;BME280;32260;52.008;4.752;2023-07-02T09:59:24;101109.34;;;22.19;33.69
46534;BME280;32260;52.008;4.752;2023-07-02T10:01:51;101117.50;;;22.05;33.09
46534;BME280;32260;52.008;4.752;2023-07-02T10:04:22;101121.94;;;22.06;34.58
46534;BME280;32260;52.008;4.752;2023-07-02T10:06:57;101120.31;;;22.30;35.72
46534;BME280;32260;52.008;4.752;2023-07-02T10:14:54;101133.41;;;22.51;33.43
46534;BME280;32260;52.008;4.752;2023-07-02T10:20:06;101134.94;;;22.55;32.65
46534;BME280;32260;52.008;4.752;2023-07-02T10:22:50;101126.66;;;22.58;33.79
46534;BME280;32260;52.008;4.752;2023-07-02T10:25:39;101133.41;;;22.51;33.78
46534;BME280;32260;52.008;4.752;2023-07-02T10:28:21;101138.41;;;22.57;33.72
46534;BME280;32260;52.008;4.752;2023-07-02T10:30:50;101137.28;;;22.47;34.00
46534;BME280;32260;52.008;4.752;2023-07-02T10:33:19;101137.91;;;22.23;33.40
46534;BME280;32260;52.008;4.752;2023-07-02T10:35:47;101149.25;;;22.43;33.05
46534;BME280;32260;52.008;4.752;2023-07-02T10:38:23;101147.47;;;22.56;32.50
46534;BME280;32260;52.008;4.752;2023-07-02T10:40:57;101142.59;;;22.76;33.30
46534;BME280;32260;52.008;4.752;2023-07-02T10:43:26;101141.88;;;22.87;33.52
46534;BME280;32260;52.008;4.752;2023-07-02T10:45:54;101146.50;;;22.85;31.95
46534;BME280;32260;52.008;4.752;2023-07-02T10:48:21;101143.28;;;22.92;33.53
46534;BME280;32260;52.008;4.752;2023-07-02T10:50:47;101141.53;;;22.91;31.37
46534;BME280;32260;52.008;4.752;2023-07-02T10:53:17;101138.66;;;22.94;31.52
46534;BME280;32260;52.008;4.752;2023-07-02T10:55:44;101141.59;;;23.04;31.60
46534;BME280;32260;52.008;4.752;2023-07-02T10:58:11;101144.72;;;23.25;32.01
46534;BME280;32260;52.008;4.752;2023-07-02T11:03:24;101124.28;;;23.34;31.26
46534;BME280;32260;52.008;4.752;2023-07-02T11:05:51;101145.25;;;23.31;31.75
46534;BME280;32260;52.008;4.752;2023-07-02T11:08:18;101162.00;;;23.49;32.07
46534;BME280;32260;52.008;4.752;2023-07-02T11:10:44;101147.19;;;23.29;31.24
46534;BME280;32260;52.008;4.752;2023-07-02T11:13:12;101149.19;;;23.12;32.03
46534;BME280;32260;52.008;4.752;2023-07-02T11:15:39;101167.66;;;23.05;32.05
46534;BME280;32260;52.008;4.752;2023-07-02T11:18:16;101149.09;;;22.86;30.56
46534;BME280;32260;52.008;4.752;2023-07-02T11:20:44;101157.97;;;22.88;32.06
46534;BME280;32260;52.008;4.752;2023-07-02T11:23:26;101158.56;;;22.79;32.32
46534;BME280;32260;52.008;4.752;2023-07-02T11:26:00;101155.69;;;22.82;32.17
46534;BME280;32260;52.008;4.752;2023-07-02T11:28:28;101159.72;;;22.89;32.14
46534;BME280;32260;52.008;4.752;2023-07-02T11:30:54;101163.53;;;23.00;33.19
46534;BME280;32260;52.008;4.752;2023-07-02T11:33:33;101170.41;;;23.18;30.50
46534;BME280;32260;52.008;4.752;2023-07-02T11:35:59;101188.63;;;23.02;29.74
46534;BME280;32260;52.008;4.752;2023-07-02T11:38:25;101145.25;;;23.43;30.32
46534;BME280;32260;52.008;4.752;2023-07-02T11:40:52;101155.31;;;23.67;30.78
46534;BME280;32260;52.008;4.752;2023-07-02T11:43:18;101149.03;;;23.80;30.29
46534;BME280;32260;52.008;4.752;2023-07-02T11:45:44;101170.47;;;23.44;27.50
46534;BME280;32260;52.008;4.752;2023-07-02T11:48:11;101156.47;;;23.24;28.19
46534;BME280;32260;52.008;4.752;2023-07-02T11:50:37;101155.22;;;23.43;28.98
46534;BME280;32260;52.008;4.752;2023-07-02T11:53:03;101150.34;;;23.48;30.23
46534;BME280;32260;52.008;4.752;2023-07-02T11:55:29;101157.59;;;23.61;30.22
46534;BME280;32260;52.008;4.752;2023-07-02T11:57:56;101170.81;;;23.78;30.02
46534;BME280;32260;52.008;4.752;2023-07-02T12:00:22;101163.09;;;23.85;29.55
46534;BME280;32260;52.008;4.752;2023-07-02T12:02:49;101159.22;;;24.02;29.42
46534;BME280;32260;52.008;4.752;2023-07-02T12:05:15;101159.34;;;24.00;29.09
46534;BME280;32260;52.008;4.752;2023-07-02T12:07:41;101154.88;;;24.25;30.62
46534;BME280;32260;52.008;4.752;2023-07-02T12:10:08;101167.06;;;24.31;29.89
46534;BME280;32260;52.008;4.752;2023-07-02T12:12:34;101174.25;;;24.56;29.35
46534;BME280;32260;52.008;4.752;2023-07-02T12:15:00;101185.72;;;24.60;28.51
46534;BME280;32260;52.008;4.752;2023-07-02T12:17:27;101173.19;;;24.46;29.21
46534;BME280;32260;52.008;4.752;2023-07-02T12:19:53;101178.81;;;24.55;28.81
46534;BME280;32260;52.008;4.752;2023-07-02T12:22:19;101176.81;;;24.46;28.89
46534;BME280;32260;52.008;4.752;2023-07-02T12:24:47;101181.44;;;24.44;28.04
46534;BME280;32260;52.008;4.752;2023-07-02T12:27:15;101177.31;;;24.51;28.67
46534;BME280;32260;52.008;4.752;2023-07-02T12:29:41;101180.75;;;24.53;27.64
46534;BME280;32260;52.008;4.752;2023-07-02T12:32:09;101180.75;;;24.53;27.37
46534;BME280;32260;52.008;4.752;2023-07-02T12:34:35;101207.25;;;24.37;27.83
46534;BME280;32260;52.008;4.752;2023-07-02T12:37:01;101178.56;;;24.34;28.53
46534;BME280;32260;52.008;4.752;2023-07-02T12:39:27;101178.41;;;24.49;29.50
46534;BME280;32260;52.008;4.752;2023-07-02T12:41:53;101184.47;;;24.52;28.76
46534;BME280;32260;52.008;4.752;2023-07-02T12:44:19;101177.25;;;24.64;28.17
46534;BME280;32260;52.008;4.752;2023-07-02T12:46:46;101181.56;;;24.80;28.09
46534;BME280;32260;52.008;4.752;2023-07-02T12:49:12;101174.69;;;24.63;28.24
46534;BME280;32260;52.008;4.752;2023-07-02T12:51:39;101179.78;;;24.54;28.91
46534;BME280;32260;52.008;4.752;2023-07-02T12:54:05;101191.38;;;24.57;29.28
46534;BME280;32260;52.008;4.752;2023-07-02T12:56:31;101180.44;;;24.58;29.62
46534;BME280;32260;52.008;4.752;2023-07-02T12:58:57;101189.69;;;24.43;28.40
46534;BME280;32260;52.008;4.752;2023-07-02T13:01:23;101184.69;;;24.49;28.33
46534;BME280;32260;52.008;4.752;2023-07-02T13:03:50;101199.16;;;24.74;28.99
46534;BME280;32260;52.008;4.752;2023-07-02T13:06:17;101182.28;;;24.58;28.47